Time;durP1;ratioP1;P1;durP2;ratioP2;P2;SDS_P1;SDS_P2;PMS_P1;PMS_P2;Temp;Humidity;BMP_temperature;BMP_pressure;BME280_temperature;BME280_humidity;BME280_pressure;Samples;Min_cycle;Max_cycle;Signal;HPM_P1;HPM_P2
2020/12/18 00:01:24;;;;;;;15.17;13.97;;;6.50;1.00;;;;;;5093612;28;20553;-66
2020/12/18 00:03:51;;;;;;;21.90;20.38;;;6.50;1.00;;;;;;5092285;28;20442;-66
2020/12/18 00:06:17;;;;;;;18.05;16.48;;;6.60;1.00;;;;;;5093586;28;20199;-66
2020/12/18 00:08:43;;;;;;;19.00;17.47;;;6.60;1.00;;;;;;5093536;28;20255;-66
2020/12/18 00:11:09;;;;;;;19.50;17.50;;;6.60;1.00;;;;;;5093280;28;20196;-66
2020/12/18 00:13:34;;;;;;;16.20;15.10;;;6.60;1.00;;;;;;5093476;28;20164;-66
2020/12/18 00:16:00;;;;;;;18.57;17.10;;;6.60;1.00;;;;;;5093475;28;20546;-66
2020/12/18 00:18:25;;;;;;;20.30;18.50;;;6.70;1.00;;;;;;5093405;28;20619;-66
2020/12/18 00:20:51;;;;;;;17.23;15.77;;;6.70;1.00;;;;;;5093148;28;20248;-66
2020/12/18 00:23:17;;;;;;;22.13;20.75;;;6.70;1.00;;;;;;5093561;28;20176;-66
2020/12/18 00:25:46;;;;;;;18.03;16.47;;;6.70;1.00;;;;;;5093692;28;20176;-65
2020/12/18 00:28:12;;;;;;;20.90;19.02;;;6.70;1.00;;;;;;5093688;28;20168;-66
2020/12/18 00:30:38;;;;;;;19.70;18.20;;;6.70;1.00;;;;;;5094610;28;20204;-66
2020/12/18 00:33:03;;;;;;;17.37;16.17;;;6.70;1.00;;;;;;5097131;28;20500;-66
2020/12/18 00:35:29;;;;;;;15.40;14.20;;;6.70;1.00;;;;;;5097128;28;20239;-66
2020/12/18 00:37:54;;;;;;;20.03;18.93;;;6.70;1.00;;;;;;5097133;28;20188;-66
2020/12/18 00:40:20;;;;;;;19.80;18.33;;;6.70;1.00;;;;;;5096656;28;20164;-66
2020/12/18 00:42:46;;;;;;;20.87;19.17;;;6.70;1.00;;;;;;5097442;28;20710;-66
2020/12/18 00:45:11;;;;;;;21.87;20.17;;;6.70;1.00;;;;;;5097225;28;20210;-66
2020/12/18 00:47:38;;;;;;;18.13;16.70;;;6.70;1.00;;;;;;5096581;28;20197;-66
2020/12/18 00:50:04;;;;;;;19.58;18.10;;;6.70;1.00;;;;;;5096452;28;20223;-66
2020/12/18 00:52:29;;;;;;;19.63;18.23;;;6.70;1.00;;;;;;5097032;28;20581;-66
2020/12/18 00:54:55;;;;;;;21.93;19.80;;;6.70;1.00;;;;;;5097103;28;20192;-66
2020/12/18 00:57:20;;;;;;;23.43;21.93;;;6.70;1.00;;;;;;5096509;28;20187;-67
2020/12/18 00:59:46;;;;;;;21.63;19.90;;;6.70;1.00;;;;;;5096483;28;20242;-66
2020/12/18 01:02:12;;;;;;;20.40;18.60;;;6.70;1.00;;;;;;5096514;28;20609;-66
2020/12/18 01:04:37;;;;;;;25.30;23.67;;;6.80;1.00;;;;;;5096333;28;20635;-66
2020/12/18 01:07:03;;;;;;;23.37;21.33;;;6.80;1.00;;;;;;5096702;28;20459;-66
2020/12/18 01:09:29;;;;;;;20.63;19.27;;;6.90;1.00;;;;;;5096330;28;20172;-66
2020/12/18 01:11:54;;;;;;;20.70;18.73;;;6.90;1.00;;;;;;5096054;28;20546;-66
2020/12/18 01:14:21;;;;;;;20.60;18.73;;;6.90;1.00;;;;;;5096181;28;20168;-66
2020/12/18 01:16:54;;;;;;;25.58;22.90;;;6.90;1.00;;;;;;5096281;28;20187;-66
2020/12/18 01:19:20;;;;;;;24.02;22.08;;;6.90;1.00;;;;;;5096471;28;20309;-66
2020/12/18 01:21:47;;;;;;;23.48;21.98;;;6.90;1.00;;;;;;5096362;28;20671;-66
2020/12/18 01:24:13;;;;;;;23.17;21.63;;;6.90;1.00;;;;;;5096433;28;20168;-66
2020/12/18 01:26:38;;;;;;;25.85;24.10;;;6.80;1.00;;;;;;5095843;28;20691;-66
2020/12/18 01:29:04;;;;;;;19.37;18.17;;;6.80;1.00;;;;;;5096345;28;20180;-66
2020/12/18 01:31:30;;;;;;;24.87;22.87;;;6.80;1.00;;;;;;5095830;28;20197;-66
2020/12/18 01:33:55;;;;;;;25.33;23.57;;;6.70;1.00;;;;;;5096032;28;20268;-66
2020/12/18 01:36:21;;;;;;;22.43;20.57;;;6.60;1.00;;;;;;5096180;28;20287;-66
2020/12/18 01:38:47;;;;;;;21.47;19.77;;;6.60;1.00;;;;;;5096410;28;20172;-66
2020/12/18 01:41:13;;;;;;;20.40;18.95;;;6.50;1.00;;;;;;5095792;28;20164;-66
2020/12/18 01:43:38;;;;;;;22.43;20.80;;;6.60;1.00;;;;;;5095114;28;20176;-66
2020/12/18 01:46:10;;;;;;;23.30;21.47;;;6.60;1.00;;;;;;5095523;28;20249;-66
2020/12/18 01:48:39;;;;;;;24.17;22.30;;;6.60;1.00;;;;;;5095966;28;20550;-66
2020/12/18 01:51:06;;;;;;;26.55;24.73;;;6.50;1.00;;;;;;5095602;28;20599;-66
2020/12/18 01:53:32;;;;;;;22.35;20.65;;;6.50;1.00;;;;;;5096084;28;20218;-66
2020/12/18 01:55:58;;;;;;;25.00;23.00;;;6.40;1.00;;;;;;5095559;28;20196;-66
2020/12/18 01:58:24;;;;;;;24.97;22.67;;;6.40;1.00;;;;;;5095294;28;20207;-66
2020/12/18 02:00:51;;;;;;;23.35;21.50;;;6.50;1.00;;;;;;5095282;28;20648;-65
2020/12/18 02:03:16;;;;;;;27.70;25.60;;;6.50;1.00;;;;;;5095655;28;20176;-66
2020/12/18 02:05:42;;;;;;;28.50;26.57;;;6.60;1.00;;;;;;5095786;28;20191;-66
2020/12/18 02:08:08;;;;;;;25.20;22.60;;;6.60;1.00;;;;;;5095075;28;20177;-66
2020/12/18 02:10:33;;;;;;;28.73;26.40;;;6.60;1.00;;;;;;5095080;28;20208;-66
2020/12/18 02:12:59;;;;;;;22.10;20.60;;;6.70;1.00;;;;;;5095328;28;20405;-66
2020/12/18 02:15:25;;;;;;;23.57;21.37;;;6.80;1.00;;;;;;5095011;28;20701;-66
2020/12/18 02:17:52;;;;;;;27.50;25.27;;;6.80;1.00;;;;;;5095188;28;20442;-66
2020/12/18 02:20:18;;;;;;;25.20;22.60;;;6.80;1.00;;;;;;5095374;28;20534;-66
2020/12/18 02:22:43;;;;;;;24.77;22.80;;;6.90;1.00;;;;;;5095220;28;20176;-66
2020/12/18 02:25:11;;;;;;;24.80;22.57;;;6.90;1.00;;;;;;5094892;28;20217;-66
2020/12/18 02:27:40;;;;;;;25.60;23.27;;;7.00;1.00;;;;;;5094923;28;20184;-66
2020/12/18 02:30:07;;;;;;;24.77;22.90;;;7.00;1.00;;;;;;5094933;28;20266;-66
2020/12/18 02:32:34;;;;;;;24.25;22.40;;;7.10;1.00;;;;;;5095014;28;20172;-66
2020/12/18 02:34:59;;;;;;;25.23;23.38;;;7.10;1.00;;;;;;5094506;28;20210;-66
2020/12/18 02:37:25;;;;;;;25.67;23.97;;;7.20;1.00;;;;;;5095182;28;20231;-66
2020/12/18 02:39:56;;;;;;;26.80;24.70;;;7.10;1.00;;;;;;5094546;28;20555;-66
2020/12/18 02:42:22;;;;;;;25.95;24.05;;;7.10;1.00;;;;;;5094673;28;20172;-66
2020/12/18 02:44:48;;;;;;;21.63;19.40;;;7.00;1.00;;;;;;5094816;28;20175;-66
2020/12/18 02:47:13;;;;;;;23.33;21.47;;;7.00;1.00;;;;;;5094364;28;20219;-66
2020/12/18 02:49:39;;;;;;;20.80;19.00;;;6.90;1.00;;;;;;5094257;28;20168;-66
2020/12/18 02:52:04;;;;;;;19.70;17.53;;;6.90;1.00;;;;;;5094142;28;20241;-65
2020/12/18 02:54:30;;;;;;;21.23;19.03;;;6.90;1.00;;;;;;5093500;28;20168;-66
2020/12/18 02:56:55;;;;;;;23.23;21.30;;;6.80;1.00;;;;;;5094408;28;20184;-66
2020/12/18 02:59:21;;;;;;;26.87;24.67;;;6.80;1.00;;;;;;5094564;28;20170;-66
2020/12/18 03:01:46;;;;;;;23.03;21.20;;;6.80;1.00;;;;;;5094001;28;20172;-66
2020/12/18 03:04:12;;;;;;;27.30;22.43;;;6.80;1.00;;;;;;5094475;28;20565;-66
2020/12/18 03:06:38;;;;;;;27.00;25.20;;;6.70;1.00;;;;;;5094651;28;20271;-65
2020/12/18 03:09:04;;;;;;;28.10;25.87;;;6.70;1.00;;;;;;5094112;28;20176;-66
2020/12/18 03:11:30;;;;;;;22.90;20.95;;;6.80;1.00;;;;;;5093486;28;20533;-66
2020/12/18 03:13:55;;;;;;;24.57;22.80;;;6.70;1.00;;;;;;5094328;28;20172;-66
2020/12/18 03:16:21;;;;;;;24.40;22.57;;;6.70;1.00;;;;;;5094231;28;20516;-66
2020/12/18 03:18:46;;;;;;;25.90;23.83;;;6.70;1.00;;;;;;5094518;28;20249;-66
2020/12/18 03:21:12;;;;;;;25.37;23.27;;;6.70;1.00;;;;;;5093673;28;20164;-65
2020/12/18 03:23:37;;;;;;;24.93;23.03;;;6.70;1.00;;;;;;5093906;28;20169;-66
2020/12/18 03:26:03;;;;;;;26.83;24.57;;;6.60;1.00;;;;;;5093761;28;20196;-66
2020/12/18 03:28:29;;;;;;;22.23;20.23;;;6.50;1.00;;;;;;5094114;28;20164;-66
2020/12/18 03:30:56;;;;;;;21.50;19.70;;;6.60;1.00;;;;;;5093900;28;20194;-66
2020/12/18 03:33:22;;;;;;;20.95;19.30;;;6.50;1.00;;;;;;5094136;28;20160;-67
2020/12/18 03:35:47;;;;;;;20.53;18.43;;;6.60;1.00;;;;;;5093765;28;20179;-66
2020/12/18 03:38:13;;;;;;;25.33;23.20;;;6.50;1.00;;;;;;5093841;28;20778;-66
2020/12/18 03:40:38;;;;;;;24.30;21.80;;;6.60;1.00;;;;;;5093588;28;20226;-66
2020/12/18 03:43:04;;;;;;;21.03;19.10;;;6.50;1.00;;;;;;5094213;28;20176;-66
2020/12/18 03:45:29;;;;;;;23.40;21.20;;;6.50;1.00;;;;;;5094012;28;20627;-66
2020/12/18 03:47:55;;;;;;;23.60;21.20;;;6.40;1.00;;;;;;5094077;28;20238;-66
2020/12/18 03:50:21;;;;;;;20.70;19.00;;;6.40;1.00;;;;;;5094127;28;20196;-66
2020/12/18 03:52:46;;;;;;;25.30;23.30;;;6.40;1.00;;;;;;5093415;28;20218;-66
2020/12/18 03:55:12;;;;;;;23.30;21.60;;;6.40;1.00;;;;;;5093642;28;20164;-66
2020/12/18 03:57:37;;;;;;;27.87;25.10;;;6.40;1.00;;;;;;5093795;28;20181;-66
2020/12/18 04:00:06;;;;;;;23.17;21.07;;;6.30;1.00;;;;;;5093614;28;20168;-66
2020/12/18 04:02:31;;;;;;;26.85;24.35;;;6.30;1.00;;;;;;5093237;28;20507;-66
2020/12/18 04:04:57;;;;;;;28.33;23.23;;;6.30;1.00;;;;;;5094102;28;20285;-66
2020/12/18 04:07:22;;;;;;;22.93;20.97;;;6.40;1.00;;;;;;5097522;28;20275;-66
2020/12/18 04:09:48;;;;;;;23.97;22.03;;;6.40;1.00;;;;;;5097657;28;20180;-66
2020/12/18 04:12:14;;;;;;;25.03;22.63;;;6.30;1.00;;;;;;5097248;28;20172;-66
2020/12/18 04:14:39;;;;;;;26.70;24.50;;;6.30;1.00;;;;;;5097962;28;20509;-66
2020/12/18 04:17:05;;;;;;;28.83;26.30;;;6.30;1.00;;;;;;5097812;28;20180;-66
2020/12/18 04:19:32;;;;;;;29.58;27.00;;;6.30;1.00;;;;;;5097933;28;20174;-66
2020/12/18 04:21:58;;;;;;;25.67;23.17;;;6.30;1.00;;;;;;5097164;28;20215;-66
2020/12/18 04:24:24;;;;;;;27.20;24.98;;;6.20;1.00;;;;;;5097413;28;20169;-66
2020/12/18 04:26:50;;;;;;;27.93;25.17;;;6.20;1.00;;;;;;5097440;28;20246;-66
2020/12/18 04:29:16;;;;;;;28.07;25.30;;;6.30;1.00;;;;;;5097531;28;20876;-66
2020/12/18 04:31:42;;;;;;;26.23;23.73;;;6.20;1.00;;;;;;5097003;28;20240;-66
2020/12/18 04:34:09;;;;;;;30.97;28.47;;;6.30;1.00;;;;;;5097231;28;20215;-66
2020/12/18 04:36:34;;;;;;;31.20;28.05;;;6.20;1.00;;;;;;5095758;28;20317;-66
2020/12/18 04:39:00;;;;;;;30.50;27.87;;;6.30;1.00;;;;;;5097145;28;20259;-66
2020/12/18 04:41:27;;;;;;;26.40;23.93;;;6.20;1.00;;;;;;5096704;28;20164;-66
2020/12/18 04:43:54;;;;;;;25.05;22.70;;;6.30;1.00;;;;;;5097047;28;20246;-66
2020/12/18 04:46:21;;;;;;;28.55;25.85;;;6.30;1.00;;;;;;5097031;28;20197;-66
2020/12/18 04:48:47;;;;;;;34.30;31.50;;;6.30;1.00;;;;;;5096765;28;20174;-66
2020/12/18 04:51:18;;;;;;;27.42;24.52;;;6.30;1.00;;;;;;5096772;28;20211;-66
2020/12/18 04:53:48;;;;;;;30.65;27.35;;;6.30;1.00;;;;;;5096621;28;20164;-66
2020/12/18 04:56:24;;;;;;;28.15;25.35;;;6.30;1.00;;;;;;5097171;28;20203;-66
2020/12/18 04:58:53;;;;;;;33.05;26.42;;;6.20;1.00;;;;;;5097239;28;20231;-66
2020/12/18 05:01:22;;;;;;;31.50;28.17;;;6.20;1.00;;;;;;5096793;28;20176;-66
2020/12/18 05:03:50;;;;;;;28.35;25.83;;;6.30;1.00;;;;;;5096539;28;20218;-66
2020/12/18 05:06:16;;;;;;;28.58;25.48;;;6.30;1.00;;;;;;5096400;28;20189;-66
2020/12/18 05:08:43;;;;;;;30.88;27.55;;;6.30;1.00;;;;;;5096729;28;20168;-66
2020/12/18 05:11:21;;;;;;;28.05;25.05;;;6.30;1.00;;;;;;5096556;28;20195;-66
2020/12/18 05:13:48;;;;;;;29.85;27.15;;;6.30;1.00;;;;;;5096201;28;20169;-66
2020/12/18 05:16:16;;;;;;;24.52;22.33;;;6.30;1.00;;;;;;5096196;28;20192;-66
2020/12/18 05:18:41;;;;;;;26.10;23.10;;;6.30;1.00;;;;;;5095270;28;20168;-66
2020/12/18 05:21:07;;;;;;;26.47;23.87;;;6.40;1.00;;;;;;5096210;28;20763;-66
2020/12/18 05:23:36;;;;;;;30.60;27.67;;;6.30;1.00;;;;;;5096007;28;20533;-67
2020/12/18 05:26:04;;;;;;;27.85;24.45;;;6.40;1.00;;;;;;5096576;28;20184;-66
2020/12/18 05:28:47;;;;;;;25.83;23.13;;;6.30;1.00;;;;;;5095981;28;20172;-67
2020/12/18 05:31:20;;;;;;;29.98;25.23;;;6.30;1.00;;;;;;5095747;28;20220;-67
2020/12/18 05:33:47;;;;;;;28.77;26.33;;;6.30;1.00;;;;;;5095997;28;20187;-67
2020/12/18 05:36:14;;;;;;;26.90;24.27;;;6.20;1.00;;;;;;5096147;28;20184;-67
2020/12/18 05:38:41;;;;;;;26.88;24.42;;;6.20;1.00;;;;;;5096446;28;20187;-66
2020/12/18 05:41:08;;;;;;;24.70;22.08;;;6.20;1.00;;;;;;5095671;28;20274;-66
2020/12/18 05:43:43;;;;;;;28.80;26.20;;;6.30;1.00;;;;;;5095876;28;20176;-66
2020/12/18 05:46:20;;;;;;;26.52;24.02;;;6.20;1.00;;;;;;5096089;28;20192;-66
2020/12/18 05:48:55;;;;;;;23.83;21.33;;;6.10;1.00;;;;;;5095559;28;20665;-66
2020/12/18 05:51:35;;;;;;;26.45;22.55;;;6.20;1.00;;;;;;5095503;28;20204;-67
2020/12/18 05:54:19;;;;;;;24.02;21.55;;;6.10;1.00;;;;;;5095922;28;20241;-67
2020/12/18 05:56:46;;;;;;;29.27;26.63;;;6.10;1.00;;;;;;5095399;28;20222;-66
2020/12/18 05:59:13;;;;;;;26.25;23.73;;;6.00;1.00;;;;;;5095944;28;20192;-66
2020/12/18 06:01:49;;;;;;;25.88;23.30;;;6.00;1.00;;;;;;5095388;28;20523;-66
2020/12/18 06:04:19;;;;;;;24.80;22.25;;;6.00;1.00;;;;;;5095492;28;20177;-66
2020/12/18 06:06:55;;;;;;;23.88;20.42;;;6.00;1.00;;;;;;5095528;28;20642;-67
2020/12/18 06:09:23;;;;;;;30.50;28.05;;;6.00;1.00;;;;;;5095787;28;20195;-66
2020/12/18 06:11:49;;;;;;;32.92;29.85;;;5.90;1.00;;;;;;5095125;28;20220;-67
2020/12/18 06:14:16;;;;;;;32.20;28.75;;;5.90;1.00;;;;;;5095235;28;20171;-67
2020/12/18 06:16:51;;;;;;;28.48;25.58;;;5.80;1.00;;;;;;5095130;28;20192;-67
2020/12/18 06:19:19;;;;;;;28.85;26.55;;;5.80;1.00;;;;;;5095273;28;20167;-66
2020/12/18 06:21:51;;;;;;;28.08;25.90;;;5.70;1.00;;;;;;5094881;28;20172;-66
2020/12/18 06:24:17;;;;;;;25.02;22.75;;;5.70;1.00;;;;;;5095460;28;20173;-67
2020/12/18 06:26:52;;;;;;;26.90;24.98;;;5.70;1.00;;;;;;5095260;28;20189;-67
2020/12/18 06:29:18;;;;;;;27.27;24.98;;;5.60;1.00;;;;;;5094975;28;20174;-66
2020/12/18 06:31:44;;;;;;;26.13;23.63;;;5.60;1.00;;;;;;5094965;28;20215;-66
2020/12/18 06:34:21;;;;;;;28.17;26.17;;;5.50;1.00;;;;;;5094780;28;20180;-67
2020/12/18 06:36:46;;;;;;;31.38;29.08;;;5.50;1.00;;;;;;5094601;28;20180;-66
2020/12/18 06:39:24;;;;;;;27.77;25.80;;;5.50;1.00;;;;;;5095229;28;20169;-67
2020/12/18 06:42:13;;;;;;;29.63;27.00;;;5.50;1.00;;;;;;5094683;28;20187;-67
2020/12/18 06:44:42;;;;;;;29.40;27.27;;;5.40;1.00;;;;;;5094677;28;20172;-66
2020/12/18 06:47:10;;;;;;;34.45;31.85;;;5.40;1.00;;;;;;5094296;28;20246;-66
2020/12/18 06:49:55;;;;;;;28.40;26.05;;;5.40;1.00;;;;;;5094813;28;20192;-66
2020/12/18 06:52:36;;;;;;;27.60;25.20;;;5.40;1.00;;;;;;5094424;28;20172;-66
2020/12/18 06:55:02;;;;;;;28.02;25.17;;;5.40;1.00;;;;;;5094572;28;20306;-66
2020/12/18 06:57:27;;;;;;;28.27;25.90;;;5.40;1.00;;;;;;5094762;28;20225;-66
2020/12/18 07:00:22;;;;;;;30.60;28.27;;;5.40;1.00;;;;;;5094822;28;20753;-66
2020/12/18 07:02:50;;;;;;;29.13;26.80;;;5.50;1.00;;;;;;5094088;28;20176;-66
2020/12/18 07:05:36;;;;;;;27.77;25.70;;;5.40;1.00;;;;;;5094508;28;20310;-66
2020/12/18 07:08:10;;;;;;;31.15;28.80;;;5.40;1.00;;;;;;5094763;28;20169;-66
2020/12/18 07:10:41;;;;;;;28.05;26.08;;;5.40;1.00;;;;;;5094250;28;20266;-66
2020/12/18 07:13:12;;;;;;;31.20;29.15;;;5.40;1.00;;;;;;5094188;28;20268;-66
2020/12/18 07:15:43;;;;;;;27.77;25.52;;;5.40;1.00;;;;;;5094291;28;20188;-67
2020/12/18 07:18:25;;;;;;;25.70;23.70;;;5.40;1.00;;;;;;5094358;28;20164;-66
2020/12/18 07:21:03;;;;;;;27.67;25.42;;;5.40;1.00;;;;;;5094385;28;20169;-66
2020/12/18 07:23:29;;;;;;;23.77;21.63;;;5.40;1.00;;;;;;5094215;28;20172;-66
2020/12/18 07:25:56;;;;;;;24.45;22.58;;;5.40;1.00;;;;;;5094151;28;20635;-66
2020/12/18 07:28:23;;;;;;;26.17;24.33;;;5.40;1.00;;;;;;5094278;28;20203;-66
2020/12/18 07:30:50;;;;;;;24.23;22.45;;;5.40;1.00;;;;;;5094359;28;20549;-67
2020/12/18 07:33:18;;;;;;;26.17;24.42;;;5.40;1.00;;;;;;5094333;28;20247;-67
2020/12/18 07:35:46;;;;;;;21.20;19.27;;;5.40;1.00;;;;;;5093709;28;20176;-66
2020/12/18 07:38:27;;;;;;;24.08;22.38;;;5.40;1.00;;;;;;5093938;28;20163;-66
2020/12/18 07:40:58;;;;;;;19.45;17.95;;;5.40;1.00;;;;;;5093333;28;20629;-66
2020/12/18 07:43:29;;;;;;;19.88;18.13;;;5.40;1.00;;;;;;5094302;28;20237;-66
2020/12/18 07:45:57;;;;;;;22.85;20.88;;;5.40;1.00;;;;;;5094190;28;20623;-66
2020/12/18 07:48:29;;;;;;;19.92;18.42;;;5.40;1.00;;;;;;5093708;28;20169;-66
2020/12/18 07:51:08;;;;;;;16.50;15.40;;;5.40;1.00;;;;;;5093619;28;20200;-66
2020/12/18 07:53:43;;;;;;;18.83;17.35;;;5.30;1.00;;;;;;5094049;28;20172;-66
2020/12/18 07:56:14;;;;;;;19.52;18.13;;;5.30;1.00;;;;;;5093643;28;20194;-66
2020/12/18 07:59:05;;;;;;;21.00;19.70;;;5.40;1.00;;;;;;5093657;28;20160;-67
2020/12/18 08:01:33;;;;;;;18.30;17.00;;;5.40;1.00;;;;;;5093524;28;20176;-66
2020/12/18 08:04:00;;;;;;;21.85;19.83;;;5.40;1.00;;;;;;5093393;28;20196;-66
2020/12/18 08:06:30;;;;;;;21.05;19.35;;;5.50;1.00;;;;;;5094076;28;20220;-66
2020/12/18 08:09:07;;;;;;;20.17;18.67;;;5.50;1.00;;;;;;5093405;28;20255;-67
2020/12/18 08:11:35;;;;;;;21.65;20.25;;;5.60;1.00;;;;;;5093355;28;20203;-66
2020/12/18 08:14:02;;;;;;;19.27;17.73;;;5.70;1.00;;;;;;5087537;28;20530;-65
2020/12/18 08:16:30;;;;;;;18.35;16.85;;;5.70;1.00;;;;;;5082048;28;20199;-66
2020/12/18 08:18:58;;;;;;;18.83;17.25;;;5.80;1.00;;;;;;5093955;28;20168;-66
2020/12/18 08:21:31;;;;;;;17.58;16.48;;;5.80;1.00;;;;;;5093570;28;20233;-66
2020/12/18 08:24:03;;;;;;;21.25;19.83;;;5.80;1.00;;;;;;5090473;28;20169;-66
2020/12/18 08:26:41;;;;;;;18.63;17.10;;;5.90;1.00;;;;;;5081333;28;20263;-66
2020/12/18 08:29:08;;;;;;;18.80;17.50;;;5.90;1.00;;;;;;5073012;28;20196;-67
2020/12/18 08:31:44;;;;;;;18.92;17.77;;;5.90;1.00;;;;;;5073204;28;20222;-66
2020/12/18 08:34:20;;;;;;;15.95;14.65;;;6.00;1.00;;;;;;5086807;28;20754;-66
2020/12/18 08:36:47;;;;;;;19.15;18.05;;;6.10;1.00;;;;;;5091779;28;20275;-65
2020/12/18 08:39:14;;;;;;;16.58;15.70;;;6.10;1.00;;;;;;5091642;28;20292;-67
2020/12/18 08:41:41;;;;;;;15.95;14.90;;;6.10;1.00;;;;;;5091428;28;20537;-67
2020/12/18 08:44:09;;;;;;;18.45;17.15;;;6.10;1.00;;;;;;5091504;28;20237;-66
2020/12/18 08:46:36;;;;;;;22.98;21.58;;;6.20;1.00;;;;;;5091033;28;20673;-67
2020/12/18 08:49:24;;;;;;;17.45;15.93;;;6.20;1.00;;;;;;5091427;28;20192;-67
2020/12/18 08:51:54;;;;;;;16.40;15.40;;;6.30;1.00;;;;;;5091236;28;20632;-66
2020/12/18 08:54:19;;;;;;;18.48;17.20;;;6.30;1.00;;;;;;5095059;28;20180;-66
2020/12/18 08:56:45;;;;;;;12.93;11.87;;;6.30;1.00;;;;;;5094877;28;20185;-67
2020/12/18 08:59:14;;;;;;;15.23;14.10;;;6.30;1.00;;;;;;5094756;28;20517;-66
2020/12/18 09:01:47;;;;;;;16.02;14.85;;;6.30;1.00;;;;;;5093263;28;20164;-66
2020/12/18 09:04:14;;;;;;;17.55;16.55;;;6.40;1.00;;;;;;5094940;28;20169;-66
2020/12/18 09:06:50;;;;;;;19.63;18.25;;;6.50;1.00;;;;;;5094694;28;20196;-66
2020/12/18 09:09:15;;;;;;;18.02;16.83;;;6.50;1.00;;;;;;5094858;28;20156;-66
2020/12/18 09:11:43;;;;;;;16.20;15.20;;;6.60;1.00;;;;;;5094234;28;20206;-65
2020/12/18 09:14:28;;;;;;;18.20;16.55;;;6.70;1.00;;;;;;5091325;28;20517;-66
2020/12/18 09:17:00;;;;;;;19.17;18.13;;;6.70;1.00;;;;;;5094496;28;20200;-67
2020/12/18 09:19:26;;;;;;;21.17;19.92;;;6.70;1.00;;;;;;5094560;28;20252;-66
2020/12/18 09:22:03;;;;;;;19.43;17.80;;;6.80;1.00;;;;;;5094288;28;20256;-67
2020/12/18 09:24:29;;;;;;;15.80;14.88;;;6.80;1.00;;;;;;5094540;28;20660;-67
2020/12/18 09:27:11;;;;;;;16.20;15.07;;;6.90;1.00;;;;;;5094400;28;20235;-66
2020/12/18 09:29:38;;;;;;;20.15;18.75;;;6.90;1.00;;;;;;5094512;28;20180;-67
2020/12/18 09:32:07;;;;;;;20.60;19.25;;;6.90;1.00;;;;;;5094103;28;20227;-67
2020/12/18 09:34:33;;;;;;;20.10;18.88;;;6.90;1.00;;;;;;5092603;28;20176;-67
2020/12/18 09:37:10;;;;;;;20.52;19.23;;;7.00;1.00;;;;;;5093586;28;20188;-66
2020/12/18 09:39:35;;;;;;;26.45;24.73;;;7.00;1.00;;;;;;5094463;28;20164;-67
2020/12/18 09:42:01;;;;;;;20.53;19.00;;;7.10;1.00;;;;;;5093910;28;20176;-66
2020/12/18 09:44:27;;;;;;;21.43;20.33;;;7.20;1.00;;;;;;5092383;28;20188;-66
2020/12/18 09:46:52;;;;;;;19.77;18.57;;;7.20;1.00;;;;;;5094022;28;20192;-66
2020/12/18 09:49:18;;;;;;;19.00;18.00;;;7.30;1.00;;;;;;5093844;28;20173;-66
2020/12/18 09:51:46;;;;;;;21.30;20.03;;;7.40;1.00;;;;;;5093428;28;20204;-66
2020/12/18 09:54:12;;;;;;;17.65;16.58;;;7.40;1.00;;;;;;5093969;28;20168;-66
2020/12/18 09:56:37;;;;;;;18.03;16.50;;;7.50;1.00;;;;;;5093911;28;20813;-66
2020/12/18 09:59:03;;;;;;;18.00;16.90;;;7.50;1.00;;;;;;5093815;28;20187;-66
2020/12/18 10:01:28;;;;;;;20.03;19.03;;;7.50;1.00;;;;;;5093461;28;20248;-66
2020/12/18 10:03:54;;;;;;;21.17;19.67;;;7.50;1.00;;;;;;5093154;28;20172;-67
2020/12/18 10:06:26;;;;;;;21.53;20.40;;;7.50;1.00;;;;;;5093741;28;20622;-66
2020/12/18 10:08:52;;;;;;;16.58;15.48;;;7.40;1.00;;;;;;5093593;28;20200;-66
2020/12/18 10:11:18;;;;;;;19.98;19.08;;;7.50;1.00;;;;;;5093150;28;20228;-66
2020/12/18 10:13:44;;;;;;;17.87;16.97;;;7.50;1.00;;;;;;5093443;28;20204;-66
2020/12/18 10:16:10;;;;;;;17.83;16.67;;;7.50;1.00;;;;;;5093357;28;20180;-66
2020/12/18 10:18:36;;;;;;;17.23;16.27;;;7.50;1.00;;;;;;5093427;28;20435;-67
2020/12/18 10:21:03;;;;;;;15.40;14.20;;;7.50;1.00;;;;;;5093349;28;20172;-66
2020/12/18 10:23:29;;;;;;;18.45;17.27;;;7.60;1.00;;;;;;5093473;28;20414;-65
2020/12/18 10:25:55;;;;;;;17.05;16.05;;;7.60;1.00;;;;;;5093396;28;20576;-66
2020/12/18 10:28:21;;;;;;;14.40;13.50;;;7.70;1.00;;;;;;5093009;28;20712;-66
2020/12/18 10:30:46;;;;;;;15.17;13.60;;;7.80;1.00;;;;;;5093217;28;20208;-67
2020/12/18 10:33:12;;;;;;;16.40;14.83;;;7.90;1.00;;;;;;5093091;28;20198;-66
2020/12/18 10:35:37;;;;;;;25.33;24.23;;;7.90;1.00;;;;;;5092757;28;20180;-66
2020/12/18 10:38:03;;;;;;;19.63;18.43;;;8.00;1.00;;;;;;5093016;28;20172;-66
2020/12/18 10:40:30;;;;;;;18.57;17.30;;;8.00;1.00;;;;;;5092417;28;20180;-68
2020/12/18 10:42:56;;;;;;;22.55;21.08;;;8.10;1.00;;;;;;5091382;28;20168;-67
2020/12/18 10:45:21;;;;;;;18.90;17.60;;;8.10;1.00;;;;;;5092705;28;20179;-68
2020/12/18 10:47:47;;;;;;;15.67;14.63;;;8.20;1.00;;;;;;5091175;28;20245;-67
2020/12/18 10:50:12;;;;;;;17.43;16.20;;;8.30;1.00;;;;;;5092638;28;20192;-67
2020/12/18 10:52:38;;;;;;;13.77;13.07;;;8.30;1.00;;;;;;5092299;28;20654;-66
2020/12/18 10:55:03;;;;;;;18.63;13.20;;;8.30;1.00;;;;;;5091191;28;20183;-66
2020/12/18 10:57:30;;;;;;;15.87;14.83;;;8.30;1.00;;;;;;5092306;28;20267;-66
2020/12/18 10:59:55;;;;;;;16.90;16.20;;;8.40;1.00;;;;;;5092455;28;20284;-67
2020/12/18 11:02:21;;;;;;;19.03;17.80;;;8.50;1.00;;;;;;5092327;28;20939;-68
2020/12/18 11:04:46;;;;;;;19.20;18.00;;;8.60;1.00;;;;;;5092517;28;20511;-67
2020/12/18 11:07:12;;;;;;;17.20;14.87;;;8.60;1.00;;;;;;5092422;28;20297;-67
2020/12/18 11:09:39;;;;;;;21.70;20.57;;;8.60;1.00;;;;;;5088828;28;20535;-67
2020/12/18 11:12:04;;;;;;;18.20;17.30;;;8.70;1.00;;;;;;5092103;28;20196;-67
2020/12/18 11:14:30;;;;;;;17.77;16.07;;;8.70;1.00;;;;;;5091708;28;20406;-66
2020/12/18 11:16:56;;;;;;;17.27;16.37;;;8.80;1.00;;;;;;5091231;28;20195;-66
2020/12/18 11:19:23;;;;;;;19.10;18.20;;;8.80;1.00;;;;;;5090603;28;20164;-67
2020/12/18 11:21:48;;;;;;;16.17;14.90;;;8.80;1.00;;;;;;5091929;28;20489;-68
2020/12/18 11:24:14;;;;;;;18.20;17.30;;;8.80;1.00;;;;;;5090806;28;20818;-67
2020/12/18 11:26:41;;;;;;;15.63;14.67;;;8.90;1.00;;;;;;5092217;28;20532;-67
2020/12/18 11:29:07;;;;;;;14.30;13.20;;;9.00;1.00;;;;;;5092304;28;20430;-67
2020/12/18 11:31:38;;;;;;;16.57;15.63;;;9.00;1.00;;;;;;5087595;28;20458;-68
2020/12/18 11:34:04;;;;;;;14.70;13.83;;;9.00;1.00;;;;;;5091740;28;20422;-67
2020/12/18 11:36:30;;;;;;;12.47;11.77;;;9.00;1.00;;;;;;5090958;28;20426;-68
2020/12/18 11:38:56;;;;;;;18.20;17.00;;;9.10;1.00;;;;;;5091248;28;20402;-67
2020/12/18 11:41:22;;;;;;;18.93;18.03;;;9.10;1.00;;;;;;5091541;28;21229;-67
2020/12/18 11:43:48;;;;;;;19.50;18.10;;;9.10;1.00;;;;;;5090623;28;20422;-66
2020/12/18 11:46:14;;;;;;;14.40;13.60;;;9.20;1.00;;;;;;5091277;28;20436;-67
2020/12/18 11:48:40;;;;;;;21.43;19.83;;;9.20;1.00;;;;;;5091517;28;20497;-67
2020/12/18 11:51:07;;;;;;;13.80;13.03;;;9.20;1.00;;;;;;5091459;28;20196;-68
2020/12/18 11:53:33;;;;;;;15.07;14.37;;;9.20;1.00;;;;;;5091372;28;20168;-67
2020/12/18 11:55:59;;;;;;;12.37;11.50;;;9.20;1.00;;;;;;5091503;28;20422;-67
2020/12/18 11:58:24;;;;;;;17.37;16.57;;;9.10;1.00;;;;;;5091354;28;20425;-67
2020/12/18 12:00:50;;;;;;;17.93;16.87;;;9.10;1.00;;;;;;5091104;28;20215;-67
2020/12/18 12:03:16;;;;;;;15.57;14.77;;;9.20;1.00;;;;;;5091528;28;20225;-77
2020/12/18 12:05:41;;;;;;;18.53;17.70;;;9.20;1.00;;;;;;5092888;28;20410;-72
2020/12/18 12:08:10;;;;;;;16.80;16.10;;;9.20;1.00;;;;;;5091088;28;20259;-72
2020/12/18 12:10:35;;;;;;;23.83;22.87;;;9.20;1.00;;;;;;5090894;28;20709;-72
2020/12/18 12:13:01;;;;;;;15.17;14.37;;;9.20;1.00;;;;;;5090644;28;20489;-72
2020/12/18 12:15:27;;;;;;;16.13;15.30;;;9.20;1.00;;;;;;5090384;28;20661;-72
2020/12/18 12:17:52;;;;;;;14.03;13.07;;;9.20;1.00;;;;;;5091009;28;20253;-72
2020/12/18 12:20:18;;;;;;;13.90;12.80;;;9.20;1.00;;;;;;5090999;28;20272;-72
2020/12/18 12:22:43;;;;;;;16.60;15.50;;;9.20;1.00;;;;;;5083500;28;20173;-72
2020/12/18 12:25:09;;;;;;;15.30;14.50;;;9.20;1.00;;;;;;5070729;28;20165;-72
2020/12/18 12:27:34;;;;;;;14.60;13.90;;;9.20;1.00;;;;;;5073264;28;20189;-72
2020/12/18 12:30:02;;;;;;;19.40;18.30;;;9.20;1.00;;;;;;5073900;28;20629;-72
2020/12/18 12:32:28;;;;;;;16.37;15.57;;;9.20;1.00;;;;;;5072988;28;20668;-72
2020/12/18 12:34:53;;;;;;;17.87;16.80;;;9.20;1.00;;;;;;5074408;28;20514;-72
2020/12/18 12:37:19;;;;;;;16.67;15.57;;;9.30;1.00;;;;;;5074285;28;20908;-71
2020/12/18 12:39:48;;;;;;;19.03;17.83;;;9.30;1.00;;;;;;5074399;28;20174;-71
2020/12/18 12:42:14;;;;;;;12.67;12.03;;;9.30;1.00;;;;;;5074047;28;20172;-71
2020/12/18 12:44:39;;;;;;;12.93;12.20;;;9.40;1.00;;;;;;5074326;28;20411;-71
2020/12/18 12:47:05;;;;;;;14.97;14.07;;;9.40;1.00;;;;;;5072916;28;20948;-72
2020/12/18 12:49:30;;;;;;;12.03;11.03;;;9.40;1.00;;;;;;5074368;28;20545;-71
2020/12/18 12:51:59;;;;;;;13.73;13.00;;;9.40;1.00;;;;;;5073963;28;20666;-72